sensor_id;sensor_type;location;lat;lon;timestamp;pressure;altitude;pressure_sealevel;temperature;humidity
38630;BME280;24384;51.988;4.644;2023-02-05T00:01:10;103854.31;;;7.49;89.00
38630;BME280;24384;51.988;4.644;2023-02-05T00:03:35;103849.13;;;7.50;88.80
38630;BME280;24384;51.988;4.644;2023-02-05T00:06:02;103829.66;;;7.42;88.88
38630;BME280;24384;51.988;4.644;2023-02-05T00:08:27;103826.84;;;7.36;89.48
38630;BME280;24384;51.988;4.644;2023-02-05T00:10:54;103812.78;;;7.34;89.16
38630;BME280;24384;51.988;4.644;2023-02-05T00:13:19;103800.28;;;7.25;89.86
38630;BME280;24384;51.988;4.644;2023-02-05T00:15:45;103810.25;;;7.37;89.47
38630;BME280;24384;51.988;4.644;2023-02-05T00:18:10;103811.09;;;7.36;89.45
38630;BME280;24384;51.988;4.644;2023-02-05T00:20:35;103800.25;;;7.24;89.87
38630;BME280;24384;51.988;4.644;2023-02-05T00:23:01;103811.00;;;7.33;89.31
38630;BME280;24384;51.988;4.644;2023-02-05T00:25:27;103823.28;;;7.34;89.34
38630;BME280;24384;51.988;4.644;2023-02-05T00:27:52;103824.34;;;7.41;88.68
38630;BME280;24384;51.988;4.644;2023-02-05T00:30:17;103826.13;;;7.42;88.63
38630;BME280;24384;51.988;4.644;2023-02-05T00:32:43;103829.56;;;7.39;89.03
38630;BME280;24384;51.988;4.644;2023-02-05T00:35:08;103823.72;;;7.49;88.49
38630;BME280;24384;51.988;4.644;2023-02-05T00:37:33;103822.47;;;7.37;88.49
38630;BME280;24384;51.988;4.644;2023-02-05T00:39:59;103827.59;;;7.32;88.47
38630;BME280;24384;51.988;4.644;2023-02-05T00:42:24;103821.69;;;7.39;88.79
38630;BME280;24384;51.988;4.644;2023-02-05T00:44:49;103821.50;;;7.33;88.46
38630;BME280;24384;51.988;4.644;2023-02-05T00:47:14;103837.44;;;7.39;88.61
38630;BME280;24384;51.988;4.644;2023-02-05T00:49:40;103832.31;;;7.44;88.25
38630;BME280;24384;51.988;4.644;2023-02-05T00:52:05;103830.56;;;7.44;87.86
38630;BME280;24384;51.988;4.644;2023-02-05T00:54:30;103822.47;;;7.37;87.95
38630;BME280;24384;51.988;4.644;2023-02-05T00:56:55;103832.09;;;7.36;87.77
38630;BME280;24384;51.988;4.644;2023-02-05T00:59:21;103844.31;;;7.34;87.93
38630;BME280;24384;51.988;4.644;2023-02-05T01:01:46;103832.88;;;7.33;87.86
38630;BME280;24384;51.988;4.644;2023-02-05T01:04:11;103833.72;;;7.31;87.55
38630;BME280;24384;51.988;4.644;2023-02-05T01:06:36;103826.75;;;7.33;87.45
38630;BME280;24384;51.988;4.644;2023-02-05T01:09:02;103833.72;;;7.31;87.16
38630;BME280;24384;51.988;4.644;2023-02-05T01:11:27;103839.00;;;7.32;87.09
38630;BME280;24384;51.988;4.644;2023-02-05T01:13:52;103833.00;;;7.38;86.56
38630;BME280;24384;51.988;4.644;2023-02-05T01:16:18;103831.09;;;7.31;86.49
38630;BME280;24384;51.988;4.644;2023-02-05T01:18:43;103842.41;;;7.30;86.50
38630;BME280;24384;51.988;4.644;2023-02-05T01:21:08;103832.00;;;7.33;86.47
38630;BME280;24384;51.988;4.644;2023-02-05T01:23:33;103821.59;;;7.36;85.89
38630;BME280;24384;51.988;4.644;2023-02-05T01:25:59;103824.00;;;7.28;85.85
38630;BME280;24384;51.988;4.644;2023-02-05T01:28:24;103817.59;;;7.19;86.33
38630;BME280;24384;51.988;4.644;2023-02-05T01:30:50;103833.44;;;7.22;86.03
38630;BME280;24384;51.988;4.644;2023-02-05T01:33:16;103833.63;;;7.28;85.73
38630;BME280;24384;51.988;4.644;2023-02-05T01:35:41;103831.66;;;7.21;85.43
38630;BME280;24384;51.988;4.644;2023-02-05T01:38:09;103836.91;;;7.21;85.10
38630;BME280;24384;51.988;4.644;2023-02-05T01:40:34;103847.44;;;7.22;84.70
38630;BME280;24384;51.988;4.644;2023-02-05T01:43:00;103847.44;;;7.22;84.94
38630;BME280;24384;51.988;4.644;2023-02-05T01:50:18;103834.94;;;7.13;84.89
38630;BME280;24384;51.988;4.644;2023-02-05T01:52:45;103840.97;;;7.09;85.20
38630;BME280;24384;51.988;4.644;2023-02-05T01:55:11;103827.84;;;7.09;85.38
38630;BME280;24384;51.988;4.644;2023-02-05T01:57:37;103828.06;;;7.17;84.33
38630;BME280;24384;51.988;4.644;2023-02-05T02:00:04;103822.50;;;7.06;84.59
38630;BME280;24384;51.988;4.644;2023-02-05T02:02:31;103822.81;;;7.17;84.83
38630;BME280;24384;51.988;4.644;2023-02-05T02:05:02;103814.91;;;7.15;84.75
38630;BME280;24384;51.988;4.644;2023-02-05T02:07:31;103810.22;;;7.05;84.67
38630;BME280;24384;51.988;4.644;2023-02-05T02:09:57;103817.94;;;7.01;84.66
38630;BME280;24384;51.988;4.644;2023-02-05T02:12:27;103815.28;;;6.99;85.11
38630;BME280;24384;51.988;4.644;2023-02-05T02:14:56;103800.69;;;7.09;84.49
38630;BME280;24384;51.988;4.644;2023-02-05T02:17:23;103800.69;;;7.09;83.99
38630;BME280;24384;51.988;4.644;2023-02-05T02:19:54;103791.00;;;7.06;84.39
38630;BME280;24384;51.988;4.644;2023-02-05T02:30:43;103773.63;;;6.81;84.14
38630;BME280;24384;51.988;4.644;2023-02-05T02:35:59;103762.03;;;6.73;84.59
38630;BME280;24384;51.988;4.644;2023-02-05T02:38:31;103753.25;;;6.71;84.65
38630;BME280;24384;51.988;4.644;2023-02-05T02:41:04;103748.09;;;6.74;84.55
38630;BME280;24384;51.988;4.644;2023-02-05T02:43:54;103760.66;;;6.86;83.93
38630;BME280;24384;51.988;4.644;2023-02-05T02:46:32;103766.84;;;6.88;84.14
38630;BME280;24384;51.988;4.644;2023-02-05T02:49:05;103752.91;;;6.90;83.74
38630;BME280;24384;51.988;4.644;2023-02-05T02:51:33;103751.22;;;6.91;84.16
38630;BME280;24384;51.988;4.644;2023-02-05T02:54:03;103755.50;;;6.89;84.28
38630;BME280;24384;51.988;4.644;2023-02-05T02:56:31;103757.34;;;6.91;83.94
38630;BME280;24384;51.988;4.644;2023-02-05T02:59:02;103757.38;;;6.93;83.93
38630;BME280;24384;51.988;4.644;2023-02-05T03:01:33;103761.78;;;6.94;84.20
38630;BME280;24384;51.988;4.644;2023-02-05T03:04:05;103759.16;;;6.94;84.56
38630;BME280;24384;51.988;4.644;2023-02-05T03:06:33;103763.72;;;7.01;84.69
38630;BME280;24384;51.988;4.644;2023-02-05T03:09:05;103762.06;;;7.03;84.52
38630;BME280;24384;51.988;4.644;2023-02-05T03:11:33;103762.75;;;6.97;85.02
38630;BME280;24384;51.988;4.644;2023-02-05T03:13:58;103762.81;;;6.99;85.19
38630;BME280;24384;51.988;4.644;2023-02-05T03:16:25;103770.69;;;6.99;85.06
38630;BME280;24384;51.988;4.644;2023-02-05T03:18:51;103776.94;;;7.04;84.84
38630;BME280;24384;51.988;4.644;2023-02-05T03:21:28;103781.25;;;7.02;85.70
38630;BME280;24384;51.988;4.644;2023-02-05T03:23:54;103782.19;;;7.04;85.82
38630;BME280;24384;51.988;4.644;2023-02-05T03:26:33;103782.19;;;7.04;85.92
38630;BME280;24384;51.988;4.644;2023-02-05T03:29:01;103777.97;;;7.09;85.83
38630;BME280;24384;51.988;4.644;2023-02-05T03:32:30;103781.38;;;7.07;86.96
38630;BME280;24384;51.988;4.644;2023-02-05T03:34:44;103785.94;;;7.12;86.85
38630;BME280;24384;51.988;4.644;2023-02-05T03:40:20;103785.19;;;7.18;87.29
38630;BME280;24384;51.988;4.644;2023-02-05T03:45:47;103778.97;;;7.14;88.04
38630;BME280;24384;51.988;4.644;2023-02-05T03:51:18;103780.59;;;7.09;88.64
38630;BME280;24384;51.988;4.644;2023-02-05T03:54:07;103778.91;;;7.11;88.58
38630;BME280;24384;51.988;4.644;2023-02-05T03:56:49;103775.41;;;7.11;88.95
38630;BME280;24384;51.988;4.644;2023-02-05T03:59:17;103787.34;;;7.01;89.43
38630;BME280;24384;51.988;4.644;2023-02-05T04:01:44;103786.63;;;7.07;89.23
38630;BME280;24384;51.988;4.644;2023-02-05T04:04:11;103784.16;;;7.11;89.83
38630;BME280;24384;51.988;4.644;2023-02-05T04:06:36;103789.97;;;7.01;90.19
38630;BME280;24384;51.988;4.644;2023-02-05T04:09:02;103790.75;;;6.97;90.75
38630;BME280;24384;51.988;4.644;2023-02-05T04:11:27;103790.69;;;6.95;90.63
38630;BME280;24384;51.988;4.644;2023-02-05T04:13:52;103786.38;;;6.97;91.14
38630;BME280;24384;51.988;4.644;2023-02-05T04:16:18;103788.78;;;6.90;91.40
38630;BME280;24384;51.988;4.644;2023-02-05T04:18:43;103793.78;;;6.82;91.59
38630;BME280;24384;51.988;4.644;2023-02-05T04:21:08;103787.84;;;6.88;92.17
38630;BME280;24384;51.988;4.644;2023-02-05T04:23:33;103794.03;;;6.90;92.20
38630;BME280;24384;51.988;4.644;2023-02-05T04:25:59;103786.91;;;6.86;91.88
38630;BME280;24384;51.988;4.644;2023-02-05T04:28:24;103783.63;;;6.93;92.06
38630;BME280;24384;51.988;4.644;2023-02-05T04:30:49;103792.28;;;6.90;92.20
38630;BME280;24384;51.988;4.644;2023-02-05T04:33:15;103798.13;;;6.80;91.80
38630;BME280;24384;51.988;4.644;2023-02-05T04:35:43;103788.59;;;6.84;91.70
38630;BME280;24384;51.988;4.644;2023-02-05T04:38:10;103794.63;;;6.81;91.70
38630;BME280;24384;51.988;4.644;2023-02-05T04:40:37;103798.84;;;6.76;91.21
38630;BME280;24384;51.988;4.644;2023-02-05T04:43:02;103810.38;;;6.81;91.19
38630;BME280;24384;51.988;4.644;2023-02-05T04:45:27;103812.16;;;6.82;91.03
38630;BME280;24384;51.988;4.644;2023-02-05T04:47:56;103820.03;;;6.82;90.05
38630;BME280;24384;51.988;4.644;2023-02-05T04:50:21;103825.13;;;6.77;89.91
38630;BME280;24384;51.988;4.644;2023-02-05T04:52:47;103830.38;;;6.77;89.65
38630;BME280;24384;51.988;4.644;2023-02-05T04:55:12;103828.72;;;6.81;89.57
38630;BME280;24384;51.988;4.644;2023-02-05T04:57:37;103835.63;;;6.77;89.96
38630;BME280;24384;51.988;4.644;2023-02-05T05:00:03;103845.06;;;6.71;89.76
38630;BME280;24384;51.988;4.644;2023-02-05T05:02:28;103842.28;;;6.66;89.68
38630;BME280;24384;51.988;4.644;2023-02-05T05:04:53;103848.31;;;6.63;90.29
38630;BME280;24384;51.988;4.644;2023-02-05T05:07:19;103841.38;;;6.66;89.30
38630;BME280;24384;51.988;4.644;2023-02-05T05:09:44;103849.00;;;6.58;89.10
38630;BME280;24384;51.988;4.644;2023-02-05T05:12:09;103864.09;;;6.65;88.37
38630;BME280;24384;51.988;4.644;2023-02-05T05:14:34;103844.91;;;6.66;88.33
38630;BME280;24384;51.988;4.644;2023-02-05T05:17:01;103860.34;;;6.57;87.87
38630;BME280;24384;51.988;4.644;2023-02-05T05:19:26;103861.88;;;6.50;87.41
38630;BME280;24384;51.988;4.644;2023-02-05T05:21:52;103857.53;;;6.51;86.86
38630;BME280;24384;51.988;4.644;2023-02-05T05:24:17;103869.47;;;6.42;85.91
38630;BME280;24384;51.988;4.644;2023-02-05T05:26:42;103876.22;;;6.34;85.83
38630;BME280;24384;51.988;4.644;2023-02-05T05:29:13;103878.06;;;6.37;85.82
38630;BME280;24384;51.988;4.644;2023-02-05T05:31:39;103874.31;;;6.30;85.31
38630;BME280;24384;51.988;4.644;2023-02-05T05:34:04;103874.22;;;6.27;84.59
38630;BME280;24384;51.988;4.644;2023-02-05T05:36:29;103879.16;;;6.18;84.41
38630;BME280;24384;51.988;4.644;2023-02-05T05:38:54;103885.97;;;6.13;83.70
38630;BME280;24384;51.988;4.644;2023-02-05T05:41:22;103892.94;;;5.88;83.78
38630;BME280;24384;51.988;4.644;2023-02-05T05:44:07;103901.75;;;5.90;84.08
38630;BME280;24384;51.988;4.644;2023-02-05T05:46:33;103896.56;;;5.91;84.03
38630;BME280;24384;51.988;4.644;2023-02-05T05:49:00;103899.88;;;5.86;83.49
38630;BME280;24384;51.988;4.644;2023-02-05T05:51:27;103902.50;;;5.86;83.59
38630;BME280;24384;51.988;4.644;2023-02-05T05:53:53;103917.47;;;5.90;83.77
38630;BME280;24384;51.988;4.644;2023-02-05T05:56:19;103916.78;;;5.96;83.01
38630;BME280;24384;51.988;4.644;2023-02-05T05:58:44;103919.19;;;5.89;82.74
38630;BME280;24384;51.988;4.644;2023-02-05T06:01:11;103927.88;;;5.88;83.41
38630;BME280;24384;51.988;4.644;2023-02-05T06:03:37;103922.53;;;5.85;82.72
38630;BME280;24384;51.988;4.644;2023-02-05T06:06:04;103926.22;;;5.90;82.91
38630;BME280;24384;51.988;4.644;2023-02-05T06:08:30;103932.25;;;5.88;83.25
38630;BME280;24384;51.988;4.644;2023-02-05T06:10:56;103922.53;;;5.85;83.33
38630;BME280;24384;51.988;4.644;2023-02-05T06:13:21;103922.75;;;5.91;82.98
38630;BME280;24384;51.988;4.644;2023-02-05T06:15:46;103937.47;;;5.88;82.82
38630;BME280;24384;51.988;4.644;2023-02-05T06:18:13;103925.25;;;5.88;82.53
38630;BME280;24384;51.988;4.644;2023-02-05T06:20:40;103937.84;;;5.97;81.99
38630;BME280;24384;51.988;4.644;2023-02-05T06:23:05;103947.06;;;5.87;82.22
38630;BME280;24384;51.988;4.644;2023-02-05T06:25:33;103954.31;;;5.95;82.21
38630;BME280;24384;51.988;4.644;2023-02-05T06:27:58;103959.44;;;5.91;82.34
38630;BME280;24384;51.988;4.644;2023-02-05T06:30:26;103960.53;;;5.97;81.76
38630;BME280;24384;51.988;4.644;2023-02-05T06:32:51;103959.19;;;6.08;81.34
38630;BME280;24384;51.988;4.644;2023-02-05T06:35:16;103977.69;;;6.13;81.27
38630;BME280;24384;51.988;4.644;2023-02-05T06:37:42;103973.97;;;6.06;81.91
38630;BME280;24384;51.988;4.644;2023-02-05T06:40:08;103974.75;;;6.03;81.72
38630;BME280;24384;51.988;4.644;2023-02-05T06:42:33;103998.28;;;6.02;82.54
38630;BME280;24384;51.988;4.644;2023-02-05T06:44:58;104002.69;;;6.03;82.21
38630;BME280;24384;51.988;4.644;2023-02-05T06:47:24;104011.75;;;6.13;82.11
38630;BME280;24384;51.988;4.644;2023-02-05T06:49:49;104013.50;;;6.12;82.28
38630;BME280;24384;51.988;4.644;2023-02-05T06:52:14;104014.50;;;6.16;81.84
38630;BME280;24384;51.988;4.644;2023-02-05T06:54:42;104011.09;;;6.18;82.06
38630;BME280;24384;51.988;4.644;2023-02-05T06:57:09;104012.88;;;6.19;81.50
38630;BME280;24384;51.988;4.644;2023-02-05T06:59:35;104023.28;;;6.18;81.12
38630;BME280;24384;51.988;4.644;2023-02-05T07:02:00;104021.38;;;6.12;81.04
38630;BME280;24384;51.988;4.644;2023-02-05T07:04:25;104017.34;;;6.22;80.75
38630;BME280;24384;51.988;4.644;2023-02-05T07:06:53;104026.94;;;6.21;80.57
38630;BME280;24384;51.988;4.644;2023-02-05T07:09:19;104030.09;;;6.13;79.76
38630;BME280;24384;51.988;4.644;2023-02-05T07:11:44;104040.03;;;6.21;79.87
38630;BME280;24384;51.988;4.644;2023-02-05T07:14:09;104047.84;;;6.20;79.80
38630;BME280;24384;51.988;4.644;2023-02-05T07:16:35;104042.84;;;6.26;80.13
38630;BME280;24384;51.988;4.644;2023-02-05T07:19:00;104058.28;;;6.18;80.45
38630;BME280;24384;51.988;4.644;2023-02-05T07:21:25;104063.28;;;6.12;80.42
38630;BME280;24384;51.988;4.644;2023-02-05T07:23:51;104062.56;;;6.16;80.63
38630;BME280;24384;51.988;4.644;2023-02-05T07:26:16;104069.75;;;6.22;80.61
38630;BME280;24384;51.988;4.644;2023-02-05T07:28:43;104074.34;;;6.27;79.84
38630;BME280;24384;51.988;4.644;2023-02-05T07:31:13;104069.81;;;6.23;80.13
38630;BME280;24384;51.988;4.644;2023-02-05T07:33:40;104071.44;;;6.20;80.30
38630;BME280;24384;51.988;4.644;2023-02-05T07:36:08;104095.91;;;6.20;80.20
38630;BME280;24384;51.988;4.644;2023-02-05T07:38:34;104100.16;;;6.17;80.39
38630;BME280;24384;51.988;4.644;2023-02-05T07:41:04;104107.16;;;6.18;79.52
38630;BME280;24384;51.988;4.644;2023-02-05T07:43:29;104105.56;;;6.21;79.71
38630;BME280;24384;51.988;4.644;2023-02-05T07:45:57;104106.34;;;6.19;79.32
38630;BME280;24384;51.988;4.644;2023-02-05T07:48:23;104108.13;;;6.20;78.96
38630;BME280;24384;51.988;4.644;2023-02-05T07:50:48;104116.88;;;6.20;79.42
38630;BME280;24384;51.988;4.644;2023-02-05T07:53:13;104099.59;;;6.25;79.05
38630;BME280;24384;51.988;4.644;2023-02-05T07:55:38;104110.13;;;6.27;79.43
38630;BME280;24384;51.988;4.644;2023-02-05T07:58:04;104108.00;;;6.41;79.19
38630;BME280;24384;51.988;4.644;2023-02-05T08:00:29;104114.34;;;6.46;78.40
38630;BME280;24384;51.988;4.644;2023-02-05T08:02:55;104115.78;;;6.62;78.15
38630;BME280;24384;51.988;4.644;2023-02-05T08:05:20;104121.19;;;6.67;78.29
38630;BME280;24384;51.988;4.644;2023-02-05T08:07:45;104123.16;;;6.72;78.19
38630;BME280;24384;51.988;4.644;2023-02-05T08:10:12;104127.66;;;6.76;77.94
38630;BME280;24384;51.988;4.644;2023-02-05T08:12:38;104122.06;;;6.91;77.93
38630;BME280;24384;51.988;4.644;2023-02-05T08:15:03;104112.88;;;7.04;77.46
38630;BME280;24384;51.988;4.644;2023-02-05T08:17:29;104128.41;;;6.98;76.57
38630;BME280;24384;51.988;4.644;2023-02-05T08:19:54;104126.69;;;6.98;75.33
38630;BME280;24384;51.988;4.644;2023-02-05T08:22:19;104142.88;;;6.87;76.67
38630;BME280;24384;51.988;4.644;2023-02-05T08:24:44;104134.88;;;7.08;76.48
38630;BME280;24384;51.988;4.644;2023-02-05T08:27:10;104141.72;;;7.30;76.89
38630;BME280;24384;51.988;4.644;2023-02-05T08:29:35;104129.41;;;7.55;75.27
38630;BME280;24384;51.988;4.644;2023-02-05T08:32:01;104130.13;;;7.50;74.93
38630;BME280;24384;51.988;4.644;2023-02-05T08:34:27;104126.78;;;7.55;75.12
38630;BME280;24384;51.988;4.644;2023-02-05T08:36:52;104132.56;;;7.71;75.30
38630;BME280;24384;51.988;4.644;2023-02-05T08:39:17;104140.75;;;7.81;74.04
38630;BME280;24384;51.988;4.644;2023-02-05T08:41:42;104147.69;;;7.79;73.71
38630;BME280;24384;51.988;4.644;2023-02-05T08:44:08;104149.03;;;7.66;74.24
38630;BME280;24384;51.988;4.644;2023-02-05T08:46:33;104162.09;;;7.64;73.88
38630;BME280;24384;51.988;4.644;2023-02-05T08:48:59;104156.72;;;7.60;73.97
38630;BME280;24384;51.988;4.644;2023-02-05T08:51:24;104161.66;;;7.50;73.77
38630;BME280;24384;51.988;4.644;2023-02-05T08:53:50;104167.88;;;7.27;73.85
38630;BME280;24384;51.988;4.644;2023-02-05T08:56:15;104175.97;;;7.33;74.14
38630;BME280;24384;51.988;4.644;2023-02-05T08:58:41;104179.59;;;7.37;74.54
38630;BME280;24384;51.988;4.644;2023-02-05T09:01:13;104163.41;;;7.24;74.85
38630;BME280;24384;51.988;4.644;2023-02-05T09:03:39;104180.81;;;7.21;75.30
38630;BME280;24384;51.988;4.644;2023-02-05T09:06:07;104191.34;;;7.22;74.63
38630;BME280;24384;51.988;4.644;2023-02-05T09:08:33;104187.00;;;7.23;75.28
38630;BME280;24384;51.988;4.644;2023-02-05T09:10:59;104184.63;;;7.30;75.50
38630;BME280;24384;51.988;4.644;2023-02-05T09:13:24;104185.53;;;7.31;74.98
38630;BME280;24384;51.988;4.644;2023-02-05T09:15:50;104180.34;;;7.32;75.66
38630;BME280;24384;51.988;4.644;2023-02-05T09:18:15;104188.03;;;7.53;74.41
38630;BME280;24384;51.988;4.644;2023-02-05T09:20:42;104182.72;;;7.52;74.22
38630;BME280;24384;51.988;4.644;2023-02-05T09:23:13;104174.25;;;7.61;73.55
38630;BME280;24384;51.988;4.644;2023-02-05T09:25:39;104169.66;;;7.81;73.65
38630;BME280;24384;51.988;4.644;2023-02-05T09:28:06;104163.50;;;8.09;72.57
38630;BME280;24384;51.988;4.644;2023-02-05T09:30:35;104161.94;;;8.14;71.46
38630;BME280;24384;51.988;4.644;2023-02-05T09:33:01;104167.78;;;8.05;72.12
38630;BME280;24384;51.988;4.644;2023-02-05T09:35:26;104151.22;;;8.08;71.42
38630;BME280;24384;51.988;4.644;2023-02-05T09:37:51;104144.00;;;8.01;71.46
38630;BME280;24384;51.988;4.644;2023-02-05T09:40:19;104160.03;;;7.81;72.42
38630;BME280;24384;51.988;4.644;2023-02-05T09:42:58;104167.28;;;8.17;71.54
38630;BME280;24384;51.988;4.644;2023-02-05T09:50:58;104150.25;;;8.64;69.92
38630;BME280;24384;51.988;4.644;2023-02-05T09:53:26;104138.94;;;8.68;69.68
38630;BME280;24384;51.988;4.644;2023-02-05T09:55:53;104158.72;;;8.53;69.55
38630;BME280;24384;51.988;4.644;2023-02-05T09:58:23;104170.97;;;8.53;69.67
38630;BME280;24384;51.988;4.644;2023-02-05T10:00:54;104185.31;;;8.64;69.50
38630;BME280;24384;51.988;4.644;2023-02-05T10:03:24;104182.66;;;8.63;69.85
38630;BME280;24384;51.988;4.644;2023-02-05T10:09:00;104191.38;;;8.31;70.42
38630;BME280;24384;51.988;4.644;2023-02-05T10:11:57;104180.63;;;8.23;70.87
38630;BME280;24384;51.988;4.644;2023-02-05T10:14:47;104194.13;;;8.07;71.29
38630;BME280;24384;51.988;4.644;2023-02-05T10:17:43;104191.69;;;8.13;71.72
38630;BME280;24384;51.988;4.644;2023-02-05T10:20:50;104183.78;;;7.84;72.41
38630;BME280;24384;51.988;4.644;2023-02-05T10:23:13;104188.88;;;7.80;72.25
38630;BME280;24384;51.988;4.644;2023-02-05T10:26:14;104179.00;;;8.00;72.66
38630;BME280;24384;51.988;4.644;2023-02-05T10:31:38;104183.13;;;7.92;70.74
38630;BME280;24384;51.988;4.644;2023-02-05T10:34:17;104187.03;;;8.04;70.62
38630;BME280;24384;51.988;4.644;2023-02-05T10:36:47;104186.06;;;8.30;70.76
38630;BME280;24384;51.988;4.644;2023-02-05T10:39:16;104177.56;;;8.69;69.25
38630;BME280;24384;51.988;4.644;2023-02-05T10:41:47;104181.50;;;8.85;68.84
38630;BME280;24384;51.988;4.644;2023-02-05T10:44:22;104192.66;;;8.74;69.06
38630;BME280;24384;51.988;4.644;2023-02-05T10:46:52;104192.06;;;8.54;68.72
38630;BME280;24384;51.988;4.644;2023-02-05T10:49:37;104191.63;;;8.40;69.14
38630;BME280;24384;51.988;4.644;2023-02-05T10:52:10;104204.75;;;8.39;70.34
38630;BME280;24384;51.988;4.644;2023-02-05T10:54:36;104202.31;;;8.45;70.84
38630;BME280;24384;51.988;4.644;2023-02-05T10:57:02;104209.81;;;8.62;70.56
38630;BME280;24384;51.988;4.644;2023-02-05T10:59:30;104208.09;;;8.62;70.35
38630;BME280;24384;51.988;4.644;2023-02-05T11:02:00;104213.38;;;8.35;70.18
38630;BME280;24384;51.988;4.644;2023-02-05T11:06:57;104202.84;;;8.35;70.03
38630;BME280;24384;51.988;4.644;2023-02-05T11:14:24;104196.72;;;11.31;60.72
38630;BME280;24384;51.988;4.644;2023-02-05T11:16:52;104191.25;;;12.35;56.52
38630;BME280;24384;51.988;4.644;2023-02-05T11:19:27;104188.47;;;12.99;56.28
38630;BME280;24384;51.988;4.644;2023-02-05T11:22:01;104184.31;;;13.28;53.37
38630;BME280;24384;51.988;4.644;2023-02-05T11:29:53;104164.88;;;14.93;46.46
38630;BME280;24384;51.988;4.644;2023-02-05T11:32:20;104166.13;;;13.71;49.73
38630;BME280;24384;51.988;4.644;2023-02-05T11:34:45;104171.66;;;12.96;50.53
38630;BME280;24384;51.988;4.644;2023-02-05T11:37:15;104183.38;;;12.38;51.76
38630;BME280;24384;51.988;4.644;2023-02-05T11:39:41;104190.97;;;11.57;53.87
38630;BME280;24384;51.988;4.644;2023-02-05T11:44:35;104183.41;;;14.65;48.73
38630;BME280;24384;51.988;4.644;2023-02-05T11:47:01;104159.31;;;16.46;44.72
38630;BME280;24384;51.988;4.644;2023-02-05T11:49:38;104161.00;;;17.74;38.66
38630;BME280;24384;51.988;4.644;2023-02-05T11:52:26;104167.91;;;16.97;40.21
38630;BME280;24384;51.988;4.644;2023-02-05T11:54:53;104158.59;;;17.49;38.63
38630;BME280;24384;51.988;4.644;2023-02-05T12:02:40;104170.56;;;17.00;39.14
38630;BME280;24384;51.988;4.644;2023-02-05T12:07:45;104186.09;;;14.73;42.98
38630;BME280;24384;51.988;4.644;2023-02-05T12:13:35;104173.78;;;15.77;41.04
38630;BME280;24384;51.988;4.644;2023-02-05T12:21:38;104194.13;;;15.02;42.52
38630;BME280;24384;51.988;4.644;2023-02-05T12:26:55;104197.59;;;14.64;44.26
38630;BME280;24384;51.988;4.644;2023-02-05T12:32:38;104187.72;;;13.13;45.59
38630;BME280;24384;51.988;4.644;2023-02-05T12:35:31;104186.34;;;13.55;45.22
38630;BME280;24384;51.988;4.644;2023-02-05T12:43:29;104179.09;;;15.45;41.08
38630;BME280;24384;51.988;4.644;2023-02-05T12:48:36;104176.41;;;14.83;42.59
38630;BME280;24384;51.988;4.644;2023-02-05T12:56:54;104167.56;;;15.49;41.03
38630;BME280;24384;51.988;4.644;2023-02-05T13:05:16;104173.38;;;13.98;43.10
38630;BME280;24384;51.988;4.644;2023-02-05T13:07:47;104166.97;;;13.64;44.63
38630;BME280;24384;51.988;4.644;2023-02-05T13:10:22;104178.19;;;13.32;45.14
38630;BME280;24384;51.988;4.644;2023-02-05T13:12:52;104190.88;;;12.75;46.81
38630;BME280;24384;51.988;4.644;2023-02-05T13:15:24;104192.28;;;12.48;47.50
38630;BME280;24384;51.988;4.644;2023-02-05T13:18:01;104191.19;;;12.29;48.87
38630;BME280;24384;51.988;4.644;2023-02-05T13:20:39;104196.28;;;12.13;50.20
38630;BME280;24384;51.988;4.644;2023-02-05T13:23:30;104195.34;;;12.10;49.16
38630;BME280;24384;51.988;4.644;2023-02-05T13:26:16;104195.50;;;12.21;49.99
38630;BME280;24384;51.988;4.644;2023-02-05T13:29:06;104200.63;;;12.08;50.36
38630;BME280;24384;51.988;4.644;2023-02-05T13:31:41;104194.28;;;11.98;50.48
38630;BME280;24384;51.988;4.644;2023-02-05T13:34:13;104201.97;;;11.83;50.01
38630;BME280;24384;51.988;4.644;2023-02-05T13:45:15;104215.31;;;10.88;52.48
38630;BME280;24384;51.988;4.644;2023-02-05T13:56:29;104214.66;;;10.56;54.09
38630;BME280;24384;51.988;4.644;2023-02-05T13:59:00;104217.91;;;10.87;53.29
38630;BME280;24384;51.988;4.644;2023-02-05T14:01:30;104220.13;;;11.09;53.63
38630;BME280;24384;51.988;4.644;2023-02-05T14:04:01;104221.88;;;11.10;53.66
38630;BME280;24384;51.988;4.644;2023-02-05T14:09:21;104226.28;;;10.66;54.16
38630;BME280;24384;51.988;4.644;2023-02-05T14:11:53;104231.88;;;10.38;54.85
38630;BME280;24384;51.988;4.644;2023-02-05T14:14:26;104221.38;;;10.40;54.57
38630;BME280;24384;51.988;4.644;2023-02-05T14:16:52;104230.47;;;10.15;54.22
38630;BME280;24384;51.988;4.644;2023-02-05T14:22:09;104238.91;;;9.65;54.50
38630;BME280;24384;51.988;4.644;2023-02-05T14:24:40;104232.44;;;9.52;55.82
38630;BME280;24384;51.988;4.644;2023-02-05T14:29:51;104222.25;;;9.31;55.25
38630;BME280;24384;51.988;4.644;2023-02-05T14:34:56;104230.50;;;9.45;56.87
38630;BME280;24384;51.988;4.644;2023-02-05T14:37:45;104227.88;;;10.18;54.60
38630;BME280;24384;51.988;4.644;2023-02-05T14:40:23;104230.25;;;10.86;53.26
38630;BME280;24384;51.988;4.644;2023-02-05T14:42:52;104225.38;;;11.60;50.92
38630;BME280;24384;51.988;4.644;2023-02-05T14:45:21;104228.16;;;12.23;49.66
38630;BME280;24384;51.988;4.644;2023-02-05T14:47:47;104230.28;;;12.48;48.52
38630;BME280;24384;51.988;4.644;2023-02-05T14:52:50;104231.16;;;11.89;47.85
38630;BME280;24384;51.988;4.644;2023-02-05T14:55:20;104234.44;;;11.73;49.09
38630;BME280;24384;51.988;4.644;2023-02-05T14:58:01;104248.59;;;11.26;50.00
38630;BME280;24384;51.988;4.644;2023-02-05T15:16:47;104256.69;;;11.35;51.67
38630;BME280;24384;51.988;4.644;2023-02-05T15:22:35;104261.44;;;10.63;53.58
38630;BME280;24384;51.988;4.644;2023-02-05T15:25:06;104280.38;;;10.44;55.29
38630;BME280;24384;51.988;4.644;2023-02-05T15:27:41;104283.00;;;10.44;54.39
38630;BME280;24384;51.988;4.644;2023-02-05T15:30:08;104269.44;;;10.28;54.01